THY1212 LTBS-LTAC
Flight info
| Callsign | THY1212 |
|---|---|
| Flight time | 0h 58m |
| Altitude | 34000 |
| Route | ALTIN1C/19 ALTIN UW79 AYT UW77 HALIL |
| Aircraft | A321/M-SDE3FGHIRWY/LB1 |
Departure
| Time | 2026-04-24 18:55 |
|---|---|
| Airport | Dalaman International Airport (LTBS) |
Arrival
| Time | 2026-04-24 19:53 |
|---|---|
| Airport | Esenboğa International Airport (LTAC) |
| Time | Latitude | Longitude | Altitude | Speed | Heading |
|---|---|---|---|---|---|
| 2026-04-24 18:54 | 36.53614 | 28.79335 | 5076 ft | 272 kts | 104° |
| 2026-04-24 18:55 | 36.52892 | 28.83977 | 6024 ft | 277 kts | 99° |
| 2026-04-24 18:55 | 36.52542 | 28.86335 | 6521 ft | 280 kts | 101° |
| 2026-04-24 18:55 | 36.52140 | 28.88736 | 7027 ft | 284 kts | 103° |
| 2026-04-24 18:56 | 36.51685 | 28.91151 | 7533 ft | 287 kts | 104° |
| 2026-04-24 18:56 | 36.51482 | 28.93570 | 8002 ft | 290 kts | 87° |
| 2026-04-24 18:56 | 36.51870 | 28.96099 | 8537 ft | 294 kts | 73° |
| 2026-04-24 18:56 | 36.52605 | 28.98451 | 9040 ft | 295 kts | 64° |
| 2026-04-24 18:57 | 36.53560 | 29.00731 | 9547 ft | 296 kts | 58° |
| 2026-04-24 18:57 | 36.54628 | 29.02917 | 10048 ft | 297 kts | 55° |
| 2026-04-24 18:57 | 36.55667 | 29.04877 | 10504 ft | 299 kts | 53° |
| 2026-04-24 18:57 | 36.56859 | 29.07034 | 11010 ft | 301 kts | 52° |
| 2026-04-24 18:58 | 36.58057 | 29.09160 | 11512 ft | 307 kts | 52° |
| 2026-04-24 18:58 | 36.59335 | 29.11384 | 12036 ft | 329 kts | 52° |
| 2026-04-24 18:58 | 36.60716 | 29.13732 | 12553 ft | 345 kts | 51° |
| 2026-04-24 18:58 | 36.62177 | 29.16181 | 13065 ft | 353 kts | 51° |
| 2026-04-24 18:59 | 36.63662 | 29.18652 | 13569 ft | 355 kts | 51° |
| 2026-04-24 18:59 | 36.65139 | 29.21100 | 14065 ft | 356 kts | 51° |
| 2026-04-24 18:59 | 36.66624 | 29.23554 | 14563 ft | 356 kts | 51° |
| 2026-04-24 18:59 | 36.68198 | 29.26151 | 15088 ft | 356 kts | 50° |
| 2026-04-24 19:00 | 36.69499 | 29.28294 | 15522 ft | 356 kts | 50° |
| 2026-04-24 19:00 | 36.70978 | 29.30733 | 16016 ft | 356 kts | 50° |
| 2026-04-24 19:00 | 36.72361 | 29.33013 | 16478 ft | 355 kts | 50° |
| 2026-04-24 19:00 | 36.73853 | 29.35473 | 16976 ft | 355 kts | 50° |
| 2026-04-24 19:01 | 36.75291 | 29.37994 | 17468 ft | 357 kts | 58° |
| 2026-04-24 19:01 | 36.76309 | 29.40871 | 17982 ft | 369 kts | 69° |
| 2026-04-24 19:01 | 36.77032 | 29.44006 | 18502 ft | 382 kts | 75° |
| 2026-04-24 19:01 | 36.77568 | 29.47258 | 19009 ft | 390 kts | 79° |
| 2026-04-24 19:02 | 36.78006 | 29.50650 | 19521 ft | 395 kts | 81° |
| 2026-04-24 19:02 | 36.78379 | 29.54053 | 20024 ft | 397 kts | 82° |
| 2026-04-24 19:02 | 36.78721 | 29.57455 | 20521 ft | 398 kts | 82° |
| 2026-04-24 19:02 | 36.79058 | 29.60890 | 21020 ft | 399 kts | 82° |
| 2026-04-24 19:03 | 36.79395 | 29.64308 | 21517 ft | 398 kts | 82° |
| 2026-04-24 19:03 | 36.79741 | 29.67734 | 22015 ft | 397 kts | 82° |
| 2026-04-24 19:03 | 36.80102 | 29.71184 | 22518 ft | 396 kts | 82° |
| 2026-04-24 19:03 | 36.80465 | 29.74548 | 23009 ft | 395 kts | 82° |
| 2026-04-24 19:04 | 36.80837 | 29.77948 | 23507 ft | 394 kts | 82° |
| 2026-04-24 19:04 | 36.81208 | 29.81326 | 24003 ft | 394 kts | 82° |
| 2026-04-24 19:04 | 36.81552 | 29.84455 | 24464 ft | 393 kts | 82° |
| 2026-04-24 19:04 | 36.81923 | 29.87837 | 24962 ft | 393 kts | 82° |
| 2026-04-24 19:05 | 36.82289 | 29.91206 | 25459 ft | 392 kts | 82° |
| 2026-04-24 19:05 | 36.82653 | 29.94576 | 25957 ft | 391 kts | 82° |
| 2026-04-24 19:05 | 36.83021 | 29.97947 | 26456 ft | 391 kts | 82° |
| 2026-04-24 19:05 | 36.83398 | 30.01331 | 26957 ft | 390 kts | 81° |
| 2026-04-24 19:06 | 36.83772 | 30.04647 | 27450 ft | 390 kts | 81° |
| 2026-04-24 19:06 | 36.84158 | 30.08039 | 27954 ft | 392 kts | 81° |
| 2026-04-24 19:06 | 36.84548 | 30.11438 | 28457 ft | 393 kts | 81° |
| 2026-04-24 19:06 | 36.84930 | 30.14782 | 28950 ft | 394 kts | 81° |
| 2026-04-24 19:07 | 36.85317 | 30.18173 | 29449 ft | 394 kts | 81° |
| 2026-04-24 19:07 | 36.85706 | 30.21595 | 29952 ft | 393 kts | 81° |
| 2026-04-24 19:07 | 36.85961 | 30.23847 | 30283 ft | 392 kts | 81° |
| 2026-04-24 19:07 | 36.86465 | 30.28319 | 30942 ft | 389 kts | 81° |
| 2026-04-24 19:08 | 36.86842 | 30.31675 | 31439 ft | 386 kts | 81° |
| 2026-04-24 19:08 | 36.87209 | 30.34960 | 31929 ft | 382 kts | 81° |
| 2026-04-24 19:08 | 36.87574 | 30.38233 | 32422 ft | 376 kts | 81° |
| 2026-04-24 19:08 | 36.87929 | 30.41427 | 32852 ft | 373 kts | 81° |
| 2026-04-24 19:09 | 36.88289 | 30.44670 | 32952 ft | 379 kts | 82° |
| 2026-04-24 19:09 | 36.89027 | 30.51342 | 33004 ft | 396 kts | 82° |
| 2026-04-24 19:09 | 36.89405 | 30.54775 | 33005 ft | 407 kts | 82° |
| 2026-04-24 19:10 | 36.89796 | 30.58330 | 33005 ft | 419 kts | 82° |
| 2026-04-24 19:10 | 36.90196 | 30.61979 | 33006 ft | 431 kts | 82° |
| 2026-04-24 19:10 | 36.90608 | 30.65750 | 33004 ft | 441 kts | 82° |
| 2026-04-24 19:11 | 36.91408 | 30.73135 | 33001 ft | 453 kts | 82° |
| 2026-04-24 19:11 | 36.92030 | 30.76992 | 32990 ft | 455 kts | 69° |
| 2026-04-24 19:11 | 36.93493 | 30.80393 | 32991 ft | 452 kts | 50° |
| 2026-04-24 19:11 | 36.95738 | 30.83221 | 33003 ft | 449 kts | 37° |
| 2026-04-24 19:12 | 36.98267 | 30.85441 | 33005 ft | 448 kts | 29° |
| 2026-04-24 19:12 | 37.03745 | 30.89050 | 33000 ft | 447 kts | 22° |
| 2026-04-24 19:13 | 37.08480 | 30.91756 | 32997 ft | 447 kts | 21° |
| 2026-04-24 19:13 | 37.15066 | 30.95522 | 32996 ft | 447 kts | 22° |
| 2026-04-24 19:14 | 37.20412 | 30.98744 | 32996 ft | 447 kts | 23° |
| 2026-04-24 19:14 | 37.25957 | 31.02258 | 32996 ft | 448 kts | 24° |
| 2026-04-24 19:15 | 37.31467 | 31.05898 | 32996 ft | 448 kts | 25° |
| 2026-04-24 19:15 | 37.36991 | 31.09480 | 32996 ft | 448 kts | 23° |
| 2026-04-24 19:16 | 37.45374 | 31.14567 | 32996 ft | 447 kts | 22° |
| 2026-04-24 19:16 | 37.51041 | 31.17933 | 32996 ft | 447 kts | 22° |
| 2026-04-24 19:17 | 37.56637 | 31.21246 | 32996 ft | 447 kts | 22° |
| 2026-04-24 19:17 | 37.62255 | 31.24575 | 32996 ft | 447 kts | 22° |
| 2026-04-24 19:18 | 37.67910 | 31.27933 | 32996 ft | 447 kts | 22° |
| 2026-04-24 19:18 | 37.73518 | 31.31272 | 32996 ft | 447 kts | 22° |
| 2026-04-24 19:19 | 37.79133 | 31.34622 | 32996 ft | 447 kts | 22° |
| 2026-04-24 19:19 | 37.84761 | 31.37987 | 32996 ft | 447 kts | 22° |
| 2026-04-24 19:20 | 37.90399 | 31.41365 | 32996 ft | 447 kts | 22° |
| 2026-04-24 19:20 | 37.96000 | 31.44728 | 32996 ft | 447 kts | 22° |
| 2026-04-24 19:21 | 38.01349 | 31.47947 | 33164 ft | 443 kts | 22° |
| 2026-04-24 19:21 | 38.04088 | 31.49598 | 33518 ft | 439 kts | 22° |
| 2026-04-24 19:21 | 38.06868 | 31.51277 | 33831 ft | 441 kts | 22° |
| 2026-04-24 19:22 | 38.12388 | 31.54646 | 33992 ft | 449 kts | 23° |
| 2026-04-24 19:22 | 38.18034 | 31.58158 | 33997 ft | 449 kts | 23° |
| 2026-04-24 19:23 | 38.23610 | 31.61658 | 33995 ft | 448 kts | 23° |
| 2026-04-24 19:23 | 38.29210 | 31.65190 | 33995 ft | 447 kts | 23° |
| 2026-04-24 19:24 | 38.34759 | 31.68698 | 33996 ft | 446 kts | 23° |
| 2026-04-24 19:24 | 38.40350 | 31.72239 | 33996 ft | 446 kts | 23° |
| 2026-04-24 19:25 | 38.45914 | 31.75768 | 33996 ft | 446 kts | 23° |
| 2026-04-24 19:25 | 38.51462 | 31.79292 | 33996 ft | 446 kts | 23° |
| 2026-04-24 19:26 | 38.56725 | 31.82640 | 33783 ft | 450 kts | 24° |
| 2026-04-24 19:26 | 38.59537 | 31.84430 | 33372 ft | 455 kts | 24° |
| 2026-04-24 19:26 | 38.62371 | 31.86234 | 32953 ft | 457 kts | 24° |
| 2026-04-24 19:27 | 38.65214 | 31.88047 | 32531 ft | 457 kts | 24° |
| 2026-04-24 19:27 | 38.68084 | 31.89880 | 32104 ft | 457 kts | 24° |
| 2026-04-24 19:27 | 38.70652 | 31.91522 | 31722 ft | 457 kts | 24° |
| 2026-04-24 19:27 | 38.73481 | 31.93333 | 31252 ft | 457 kts | 24° |
| 2026-04-24 19:28 | 38.76321 | 31.95154 | 30715 ft | 449 kts | 24° |
| 2026-04-24 19:28 | 38.79098 | 31.96938 | 30130 ft | 443 kts | 24° |
| 2026-04-24 19:28 | 38.81836 | 31.98700 | 29530 ft | 436 kts | 24° |
| 2026-04-24 19:28 | 38.84507 | 32.00420 | 28932 ft | 429 kts | 24° |
| 2026-04-24 19:29 | 38.89761 | 32.03804 | 27733 ft | 419 kts | 23° |
| 2026-04-24 19:29 | 38.92399 | 32.05505 | 27121 ft | 414 kts | 23° |
| 2026-04-24 19:29 | 38.94939 | 32.07142 | 26525 ft | 410 kts | 23° |
| 2026-04-24 19:30 | 38.97487 | 32.08786 | 25923 ft | 406 kts | 23° |
| 2026-04-24 19:30 | 39.00001 | 32.10408 | 25323 ft | 403 kts | 23° |
| 2026-04-24 19:30 | 39.02501 | 32.12023 | 24720 ft | 399 kts | 23° |
| 2026-04-24 19:30 | 39.04959 | 32.13611 | 24123 ft | 396 kts | 23° |
| 2026-04-24 19:31 | 39.07432 | 32.15211 | 23516 ft | 392 kts | 23° |
| 2026-04-24 19:31 | 39.09846 | 32.16773 | 22918 ft | 388 kts | 23° |
| 2026-04-24 19:31 | 39.12249 | 32.18330 | 22318 ft | 384 kts | 23° |
| 2026-04-24 19:31 | 39.14611 | 32.19862 | 21717 ft | 378 kts | 23° |
| 2026-04-24 19:32 | 39.16921 | 32.21362 | 21119 ft | 371 kts | 23° |
| 2026-04-24 19:32 | 39.19206 | 32.22848 | 20515 ft | 364 kts | 23° |
| 2026-04-24 19:32 | 39.21446 | 32.24305 | 19911 ft | 357 kts | 23° |
| 2026-04-24 19:32 | 39.23658 | 32.25745 | 19304 ft | 351 kts | 23° |
| 2026-04-24 19:33 | 39.25094 | 32.26679 | 18904 ft | 347 kts | 23° |
| 2026-04-24 19:33 | 39.27873 | 32.28487 | 18121 ft | 341 kts | 24° |
| 2026-04-24 19:33 | 39.29994 | 32.29865 | 17516 ft | 338 kts | 24° |
| 2026-04-24 19:33 | 39.31992 | 32.31165 | 16943 ft | 336 kts | 24° |
| 2026-04-24 19:34 | 39.34070 | 32.32518 | 16343 ft | 334 kts | 24° |
| 2026-04-24 19:34 | 39.36108 | 32.33874 | 15749 ft | 332 kts | 26° |
| 2026-04-24 19:34 | 39.37968 | 32.35233 | 15195 ft | 331 kts | 28° |
| 2026-04-24 19:34 | 39.39943 | 32.36772 | 14596 ft | 329 kts | 28° |
| 2026-04-24 19:35 | 39.41851 | 32.38317 | 14005 ft | 327 kts | 29° |
| 2026-04-24 19:35 | 39.43764 | 32.39901 | 13404 ft | 325 kts | 30° |
| 2026-04-24 19:35 | 39.45657 | 32.41488 | 12803 ft | 322 kts | 30° |
| 2026-04-24 19:35 | 39.47512 | 32.43057 | 12207 ft | 319 kts | 30° |
| 2026-04-24 19:36 | 39.49346 | 32.44617 | 11611 ft | 316 kts | 30° |
| 2026-04-24 19:36 | 39.51185 | 32.46186 | 11007 ft | 313 kts | 30° |
| 2026-04-24 19:36 | 39.52993 | 32.47733 | 10406 ft | 309 kts | 30° |
| 2026-04-24 19:36 | 39.54778 | 32.49264 | 9805 ft | 306 kts | 30° |
| 2026-04-24 19:37 | 39.56518 | 32.50757 | 9212 ft | 302 kts | 30° |
| 2026-04-24 19:37 | 39.58133 | 32.52145 | 8657 ft | 300 kts | 30° |
| 2026-04-24 19:37 | 39.59813 | 32.53596 | 8642 ft | 275 kts | 30° |
| 2026-04-24 19:37 | 39.61359 | 32.54936 | 8788 ft | 263 kts | 30° |
| 2026-04-24 19:38 | 39.62903 | 32.56264 | 8937 ft | 274 kts | 30° |
| 2026-04-24 19:38 | 39.64517 | 32.57646 | 8992 ft | 282 kts | 30° |
| 2026-04-24 19:38 | 39.65514 | 32.58501 | 9000 ft | 284 kts | 30° |
| 2026-04-24 19:38 | 39.67724 | 32.60402 | 9002 ft | 288 kts | 30° |
| 2026-04-24 19:39 | 39.68856 | 32.61378 | 9002 ft | 289 kts | 30° |
| 2026-04-24 19:39 | 39.70513 | 32.62809 | 9001 ft | 290 kts | 30° |
| 2026-04-24 19:39 | 39.72193 | 32.64261 | 9001 ft | 290 kts | 30° |
| 2026-04-24 19:39 | 39.74434 | 32.66201 | 9000 ft | 291 kts | 30° |
| 2026-04-24 19:40 | 39.75551 | 32.67168 | 9000 ft | 291 kts | 30° |
| 2026-04-24 19:40 | 39.77232 | 32.68625 | 9000 ft | 291 kts | 30° |
| 2026-04-24 19:40 | 39.78922 | 32.70091 | 9000 ft | 291 kts | 30° |
| 2026-04-24 19:40 | 39.80607 | 32.71553 | 9000 ft | 291 kts | 30° |
| 2026-04-24 19:41 | 39.82296 | 32.73019 | 9000 ft | 291 kts | 30° |
| 2026-04-24 19:41 | 39.83814 | 32.74338 | 9000 ft | 291 kts | 30° |
| 2026-04-24 19:41 | 39.85475 | 32.75781 | 9000 ft | 291 kts | 30° |
| 2026-04-24 19:41 | 39.87192 | 32.77273 | 9007 ft | 299 kts | 30° |
| 2026-04-24 19:42 | 39.88958 | 32.78805 | 9006 ft | 307 kts | 30° |
| 2026-04-24 19:42 | 39.90720 | 32.80336 | 9004 ft | 311 kts | 30° |
| 2026-04-24 19:42 | 39.92531 | 32.81912 | 9000 ft | 314 kts | 30° |
| 2026-04-24 19:42 | 39.94362 | 32.83508 | 8817 ft | 319 kts | 30° |
| 2026-04-24 19:43 | 39.96220 | 32.85128 | 8521 ft | 323 kts | 31° |
| 2026-04-24 19:43 | 39.98091 | 32.86763 | 8226 ft | 322 kts | 31° |
| 2026-04-24 19:43 | 39.99925 | 32.88370 | 8083 ft | 316 kts | 31° |
| 2026-04-24 19:43 | 40.01724 | 32.89948 | 8016 ft | 311 kts | 31° |
| 2026-04-24 19:44 | 40.03514 | 32.91518 | 8002 ft | 309 kts | 31° |
| 2026-04-24 19:44 | 40.05277 | 32.93139 | 8001 ft | 311 kts | 33° |
| 2026-04-24 19:44 | 40.06964 | 32.94878 | 8001 ft | 312 kts | 36° |
| 2026-04-24 19:44 | 40.08582 | 32.96684 | 7997 ft | 307 kts | 38° |
| 2026-04-24 19:45 | 40.10189 | 32.98574 | 8001 ft | 309 kts | 39° |
| 2026-04-24 19:45 | 40.11765 | 33.00492 | 8002 ft | 311 kts | 40° |
| 2026-04-24 19:45 | 40.13342 | 33.02455 | 8002 ft | 313 kts | 41° |
| 2026-04-24 19:45 | 40.14772 | 33.04260 | 8001 ft | 314 kts | 41° |
| 2026-04-24 19:46 | 40.16297 | 33.06208 | 8083 ft | 299 kts | 41° |
| 2026-04-24 19:46 | 40.17712 | 33.08036 | 8030 ft | 267 kts | 41° |
| 2026-04-24 19:46 | 40.18959 | 33.09659 | 7975 ft | 241 kts | 41° |
| 2026-04-24 19:46 | 40.20097 | 33.11133 | 7973 ft | 226 kts | 41° |
| 2026-04-24 19:47 | 40.21186 | 33.12538 | 7976 ft | 214 kts | 40° |
| 2026-04-24 19:47 | 40.22228 | 33.13878 | 7981 ft | 207 kts | 40° |
| 2026-04-24 19:47 | 40.23247 | 33.15187 | 7987 ft | 202 kts | 40° |
| 2026-04-24 19:47 | 40.24242 | 33.16458 | 7990 ft | 199 kts | 38° |
| 2026-04-24 19:48 | 40.24429 | 33.16669 | 7986 ft | 198 kts | 36° |
| 2026-04-24 19:48 | 40.25458 | 33.16787 | 7014 ft | 184 kts | 311° |
| 2026-04-24 19:48 | 40.25673 | 33.14275 | 5725 ft | 175 kts | 283° |
| 2026-04-24 19:49 | 40.27540 | 33.13140 | 5948 ft | 160 kts | 358° |
| 2026-04-24 19:49 | 40.29013 | 33.11177 | 6253 ft | 176 kts | 273° |
| 2026-04-24 19:50 | 40.25896 | 33.09119 | 5704 ft | 195 kts | 168° |
| 2026-04-24 19:50 | 40.24580 | 33.09455 | 5572 ft | 193 kts | 173° |
| 2026-04-24 19:51 | 40.22210 | 33.08410 | 5070 ft | 187 kts | 214° |
| 2026-04-24 19:51 | 40.21216 | 33.07385 | 4873 ft | 184 kts | 218° |
| 2026-04-24 19:52 | 40.19196 | 33.05443 | 4332 ft | 177 kts | 216° |
| 2026-04-24 19:52 | 40.18205 | 33.04498 | 4100 ft | 175 kts | 216° |
| 2026-04-24 19:52 | 40.17227 | 33.03561 | 3866 ft | 174 kts | 216° |
| 2026-04-24 19:52 | 40.16247 | 33.02627 | 3636 ft | 173 kts | 216° |
| 2026-04-24 19:53 | 40.15299 | 33.01723 | 3417 ft | 171 kts | 216° |
| 2026-04-24 19:53 | 40.14341 | 33.00809 | 3190 ft | 165 kts | 216° |
| 2026-04-24 19:53 | 40.13035 | 32.99569 | 3137 ft | 30 kts | 208° |
| 2026-04-24 19:54 | 40.12848 | 32.99451 | 3137 ft | 34 kts | 184° |
| 2026-04-24 19:54 | 40.12574 | 32.99394 | 3137 ft | 47 kts | 202° |
| 2026-04-24 19:54 | 40.12405 | 32.99453 | 3137 ft | 39 kts | 125° |
| 2026-04-24 19:54 | 40.12294 | 32.99475 | 3137 ft | 42 kts | 213° |
| 2026-04-24 19:55 | 40.12066 | 32.99244 | 3137 ft | 78 kts | 214° |
| 2026-04-24 19:55 | 40.11784 | 32.99074 | 3137 ft | 17 kts | 140° |
| 2026-04-24 19:55 | 40.11655 | 32.99164 | 3137 ft | 9 kts | 147° |
| 2026-04-24 19:55 | 40.11640 | 32.99176 | 3137 ft | 0 kts | 149° |